createdAt,value
2018-04-24T00:01:04.495Z,52.28
2018-04-24T00:03:36.990Z,52.28
2018-04-24T00:06:09.508Z,52.59
2018-04-24T00:08:42.004Z,52.57
2018-04-24T00:11:14.522Z,52.73
2018-04-24T00:13:47.016Z,52.57
2018-04-24T00:16:20.012Z,52.67
2018-04-24T00:18:52.559Z,52.72
2018-04-24T00:21:25.068Z,53.04
2018-04-24T00:23:57.632Z,52.74
2018-04-24T00:26:30.144Z,53.16
2018-04-24T00:29:02.636Z,53.33
2018-04-24T00:31:35.160Z,53.72
2018-04-24T00:34:07.871Z,53.94
2018-04-24T00:36:40.383Z,53.52
2018-04-24T00:39:12.873Z,53.81
2018-04-24T00:41:45.419Z,54.13
2018-04-24T00:44:18.190Z,54.61
2018-04-24T00:46:50.875Z,54.45
2018-04-24T00:49:23.310Z,54.12
2018-04-24T00:51:55.814Z,54.22
2018-04-24T00:54:28.299Z,53.92
2018-04-24T00:57:00.830Z,53.59
2018-04-24T00:59:33.419Z,53.52
2018-04-24T01:02:05.935Z,53.47
2018-04-24T01:04:38.488Z,53.08
2018-04-24T01:07:10.999Z,53.55
2018-04-24T01:09:43.577Z,53.53
2018-04-24T01:12:16.147Z,53.80
2018-04-24T01:14:49.166Z,53.95
2018-04-24T01:17:21.796Z,54.45
2018-04-24T01:19:54.286Z,54.46
2018-04-24T01:22:26.797Z,54.46
2018-04-24T01:24:59.278Z,54.34
2018-04-24T01:27:31.786Z,54.28
2018-04-24T01:30:04.359Z,54.54
2018-04-24T01:32:36.872Z,54.20
2018-04-24T01:35:09.360Z,54.68
2018-04-24T01:37:41.907Z,54.97
2018-04-24T01:40:14.497Z,55.18
2018-04-24T01:42:50.904Z,55.25
2018-04-24T01:45:24.520Z,55.49
2018-04-24T01:47:57.011Z,55.18
2018-04-24T01:50:29.543Z,55.31
2018-04-24T01:53:02.039Z,55.07
2018-04-24T01:55:34.627Z,55.46
2018-04-24T01:58:07.122Z,55.53
2018-04-24T02:00:39.640Z,55.23
2018-04-24T02:03:12.126Z,55.29
2018-04-24T02:05:44.668Z,55.48
2018-04-24T02:08:17.161Z,55.72
2018-04-24T02:10:50.450Z,55.74
2018-04-24T02:13:22.944Z,55.76
2018-04-24T02:15:55.519Z,55.90
2018-04-24T02:18:28.006Z,56.14
2018-04-24T02:21:00.600Z,56.78
2018-04-24T02:23:33.082Z,56.86
2018-04-24T02:26:05.604Z,56.41
2018-04-24T02:28:38.147Z,56.13
2018-04-24T02:31:10.662Z,56.16
2018-04-24T02:33:43.224Z,56.34
2018-04-24T02:36:15.804Z,56.08
2018-04-24T02:38:48.295Z,55.96
2018-04-24T02:41:20.807Z,55.89
2018-04-24T02:43:53.304Z,55.86
2018-04-24T02:46:25.820Z,55.71
2018-04-24T02:48:58.307Z,55.73
2018-04-24T02:51:30.819Z,55.47
2018-04-24T02:54:03.400Z,55.62
2018-04-24T02:56:35.989Z,55.70
2018-04-24T02:59:08.569Z,55.69
2018-04-24T03:01:41.170Z,55.28
2018-04-24T03:04:13.679Z,55.45
2018-04-24T03:06:46.223Z,55.29
2018-04-24T03:09:18.830Z,55.11
2018-04-24T03:11:51.426Z,55.59
2018-04-24T03:14:23.881Z,56.01
2018-04-24T03:16:56.471Z,56.05
2018-04-24T03:19:28.973Z,55.58
2018-04-24T03:22:01.550Z,55.46
2018-04-24T03:24:34.039Z,55.30
2018-04-24T03:27:06.583Z,55.26
2018-04-24T03:29:39.066Z,55.33
2018-04-24T03:32:11.585Z,55.18
2018-04-24T03:34:44.075Z,56.02
2018-04-24T03:37:16.639Z,55.47
2018-04-24T03:39:49.466Z,55.27
2018-04-24T03:42:21.987Z,55.00
2018-04-24T03:44:54.496Z,54.84
2018-04-24T03:47:27.010Z,54.58
2018-04-24T03:49:59.498Z,54.91
2018-04-24T03:52:32.016Z,55.25
2018-04-24T03:55:04.519Z,55.36
2018-04-24T03:57:37.030Z,54.90
2018-04-24T04:00:09.518Z,54.82
2018-04-24T04:02:42.088Z,54.60
2018-04-24T04:05:14.581Z,54.44
2018-04-24T04:07:47.151Z,54.28
2018-04-24T04:10:20.391Z,54.39
2018-04-24T04:12:52.909Z,54.53
2018-04-24T04:15:25.400Z,54.87
2018-04-24T04:18:09.671Z,55.16
2018-04-24T04:20:54.090Z,54.92
2018-04-24T04:23:39.471Z,54.82
2018-04-24T04:26:11.958Z,54.72
2018-04-24T04:28:44.511Z,54.66
2018-04-24T04:31:17.012Z,54.71
2018-04-24T04:33:50.100Z,55.21
2018-04-24T04:36:22.679Z,54.78
2018-04-24T04:38:55.196Z,54.68
2018-04-24T04:41:27.765Z,54.72
2018-04-24T04:44:00.235Z,54.64
2018-04-24T04:46:32.823Z,54.83
2018-04-24T04:49:05.405Z,55.04
2018-04-24T04:51:37.906Z,54.51
2018-04-24T04:54:10.416Z,55.17
2018-04-24T04:56:42.911Z,54.85
2018-04-24T04:59:15.427Z,54.74
2018-04-24T05:01:49.538Z,54.96
2018-04-24T05:04:22.178Z,54.49
2018-04-24T05:06:54.671Z,54.62
2018-04-24T05:09:27.178Z,54.02
2018-04-24T05:11:59.738Z,54.07
2018-04-24T05:14:32.259Z,54.26
2018-04-24T05:17:04.778Z,54.74
2018-04-24T05:19:37.283Z,54.39
2018-04-24T05:22:09.771Z,53.64
2018-04-24T05:24:42.340Z,54.24
2018-04-24T05:27:14.830Z,54.34
2018-04-24T05:29:47.340Z,54.79
2018-04-24T05:32:20.638Z,53.84
2018-04-24T05:34:53.195Z,53.89
2018-04-24T05:37:25.679Z,52.97
2018-04-24T05:39:58.213Z,52.75
2018-04-24T05:42:30.740Z,52.06
2018-04-24T05:45:03.331Z,52.90
2018-04-24T05:47:35.902Z,52.96
2018-04-24T05:50:08.428Z,52.28
2018-04-24T05:52:40.978Z,52.08
2018-04-24T05:55:13.505Z,52.08
2018-04-24T05:57:46.068Z,51.96
2018-04-24T06:00:19.189Z,51.64
2018-04-24T06:02:51.776Z,51.36
2018-04-24T06:05:24.291Z,50.13
2018-04-24T06:07:56.798Z,51.11
2018-04-24T06:10:29.387Z,51.82
2018-04-24T06:13:01.890Z,51.55
2018-04-24T06:15:34.451Z,49.48
2018-04-24T06:18:06.941Z,50.70
2018-04-24T06:20:39.519Z,50.07
2018-04-24T06:23:12.018Z,50.10
2018-04-24T06:25:44.534Z,49.28
2018-04-24T06:28:17.031Z,49.97
2018-04-24T06:30:50.042Z,50.20
2018-04-24T06:33:22.539Z,50.16
2018-04-24T06:35:55.069Z,50.52
2018-04-24T06:38:27.559Z,50.45
2018-04-24T06:41:00.090Z,49.97
2018-04-24T06:43:32.699Z,49.87
2018-04-24T06:46:05.254Z,50.18
2018-04-24T06:48:37.743Z,49.55
2018-04-24T06:51:10.260Z,49.87
2018-04-24T06:53:42.758Z,49.58
2018-04-24T06:56:15.271Z,48.89
2018-04-24T06:58:47.762Z,48.98
2018-04-24T07:01:20.800Z,48.64
2018-04-24T07:03:53.287Z,48.91
2018-04-24T07:06:25.884Z,49.47
2018-04-24T07:08:58.319Z,49.96
2018-04-24T07:11:30.837Z,49.96
2018-04-24T07:14:03.322Z,50.10
2018-04-24T07:16:35.867Z,49.53
2018-04-24T07:19:08.361Z,48.78
2018-04-24T07:21:40.885Z,48.65
2018-04-24T07:24:13.389Z,49.31
2018-04-24T07:26:45.991Z,49.47
2018-04-24T07:29:19.135Z,49.37
2018-04-24T07:31:51.654Z,49.18
2018-04-24T07:34:24.261Z,49.79
2018-04-24T07:36:56.783Z,50.09
2018-04-24T07:39:29.283Z,50.83
2018-04-24T07:42:01.912Z,50.93
2018-04-24T07:44:34.411Z,50.96
2018-04-24T07:47:06.975Z,49.71
2018-04-24T07:49:39.473Z,50.44
2018-04-24T07:52:12.000Z,50.68
2018-04-24T07:54:44.506Z,49.92
2018-04-24T07:57:17.016Z,49.42
2018-04-24T07:59:50.212Z,49.65
2018-04-24T08:02:22.798Z,50.19
2018-04-24T08:04:55.283Z,49.92
2018-04-24T08:07:27.798Z,49.61
2018-04-24T08:10:00.343Z,49.83
2018-04-24T08:12:32.922Z,49.07
2018-04-24T08:15:05.418Z,49.60
2018-04-24T08:17:37.991Z,49.29
2018-04-24T08:20:10.495Z,49.37
2018-04-24T08:22:43.057Z,50.32
2018-04-24T08:25:15.555Z,50.33
2018-04-24T08:27:48.721Z,50.96
2018-04-24T08:30:21.224Z,50.82
2018-04-24T08:32:53.749Z,50.25
2018-04-24T08:35:26.261Z,50.74
2018-04-24T08:37:58.776Z,50.82
2018-04-24T08:40:31.297Z,50.95
2018-04-24T08:43:03.819Z,50.54
2018-04-24T08:45:36.320Z,50.64
2018-04-24T08:48:08.924Z,49.70
2018-04-24T08:50:41.429Z,49.58
2018-04-24T08:53:13.941Z,49.31
2018-04-24T08:55:46.432Z,50.42
2018-04-24T08:58:20.022Z,50.02
2018-04-24T09:00:52.548Z,49.66
2018-04-24T09:03:25.063Z,49.67
2018-04-24T09:05:57.555Z,50.07
2018-04-24T09:08:30.103Z,49.54
2018-04-24T09:11:02.592Z,49.94
2018-04-24T09:13:35.107Z,50.69
2018-04-24T09:16:07.602Z,50.35
2018-04-24T09:18:40.123Z,49.99
2018-04-24T09:21:12.624Z,50.65
2018-04-24T09:23:45.183Z,50.75
2018-04-24T09:26:17.669Z,50.48
2018-04-24T09:28:51.019Z,51.35
2018-04-24T09:31:29.134Z,50.43
2018-04-24T09:34:01.652Z,49.12
2018-04-24T09:36:34.144Z,48.96
2018-04-24T09:39:06.688Z,49.32
2018-04-24T09:41:39.203Z,48.92
2018-04-24T09:44:11.721Z,48.61
2018-04-24T09:46:44.275Z,48.36
2018-04-24T09:49:16.850Z,48.73
2018-04-24T09:51:49.345Z,49.20
2018-04-24T09:54:21.887Z,49.13
2018-04-24T09:56:54.384Z,48.95
2018-04-24T09:59:26.984Z,49.61
2018-04-24T10:01:59.473Z,49.08
2018-04-24T10:04:32.088Z,48.74
2018-04-24T10:07:04.658Z,48.56
2018-04-24T10:09:40.551Z,48.94
2018-04-24T10:12:14.029Z,49.51
2018-04-24T10:14:46.561Z,49.94
2018-04-24T10:17:19.424Z,50.00
2018-04-24T10:19:52.018Z,49.60
2018-04-24T10:22:24.476Z,49.97
2018-04-24T10:24:57.021Z,50.31
2018-04-24T10:27:29.518Z,49.84
2018-04-24T10:30:02.124Z,50.43
2018-04-24T10:32:34.682Z,50.17
2018-04-24T10:35:07.199Z,50.21
2018-04-24T10:37:39.685Z,50.09
2018-04-24T10:40:12.203Z,50.33
2018-04-24T10:42:44.704Z,50.54
2018-04-24T10:45:17.294Z,49.80
2018-04-24T10:47:50.812Z,49.69
2018-04-24T10:50:23.333Z,50.71
2018-04-24T10:52:55.868Z,50.33
2018-04-24T10:55:28.384Z,50.45
2018-04-24T10:58:00.964Z,50.40
2018-04-24T11:00:33.585Z,50.55
2018-04-24T11:03:06.058Z,50.85
2018-04-24T11:05:38.652Z,51.67
2018-04-24T11:08:11.195Z,51.19
2018-04-24T11:10:45.737Z,50.76
2018-04-24T11:13:19.249Z,50.65
2018-04-24T11:15:51.779Z,50.69
2018-04-24T11:18:24.290Z,51.04
2018-04-24T11:20:56.810Z,52.20
2018-04-24T11:23:29.613Z,51.33
2018-04-24T11:26:02.167Z,51.12
2018-04-24T11:28:34.753Z,51.76
2018-04-24T11:31:07.263Z,51.31
2018-04-24T11:33:39.755Z,51.68
2018-04-24T11:36:12.283Z,51.41
2018-04-24T11:38:44.796Z,52.20
2018-04-24T11:41:17.380Z,51.88
2018-04-24T11:43:51.016Z,51.35
2018-04-24T11:46:23.527Z,51.04
2018-04-24T11:48:56.043Z,50.63
2018-04-24T11:51:28.635Z,51.10
2018-04-24T11:54:01.159Z,50.41
2018-04-24T11:56:33.699Z,51.25
2018-04-24T11:59:06.291Z,51.09
2018-04-24T12:01:38.887Z,51.56
2018-04-24T12:04:11.406Z,52.04
2018-04-24T12:06:43.911Z,51.68
2018-04-24T12:09:16.440Z,51.30
2018-04-24T12:11:49.430Z,51.69
2018-04-24T12:14:21.999Z,51.65
2018-04-24T12:16:54.490Z,51.05
2018-04-24T12:19:27.030Z,52.15
2018-04-24T12:21:59.529Z,51.55
2018-04-24T12:24:32.217Z,51.81
2018-04-24T12:27:04.684Z,51.77
2018-04-24T12:29:37.223Z,52.32
2018-04-24T12:32:09.807Z,53.10
2018-04-24T12:34:42.399Z,52.59
2018-04-24T12:37:14.898Z,52.54
2018-04-24T12:39:47.424Z,53.23
2018-04-24T12:42:20.027Z,52.68
2018-04-24T12:44:52.551Z,52.58
2018-04-24T12:47:25.056Z,53.02
2018-04-24T12:49:57.615Z,52.64
2018-04-24T12:52:30.195Z,52.42
2018-04-24T12:55:02.785Z,52.85
2018-04-24T12:57:35.288Z,52.18
2018-04-24T13:00:07.856Z,52.37
2018-04-24T13:02:40.359Z,52.66
2018-04-24T13:05:12.891Z,52.23
2018-04-24T13:07:45.396Z,52.17
2018-04-24T13:10:18.206Z,51.31
2018-04-24T13:12:50.792Z,51.66
2018-04-24T13:15:23.316Z,51.58
2018-04-24T13:17:55.812Z,51.67
2018-04-24T13:20:28.340Z,52.42
2018-04-24T13:23:00.842Z,51.83
2018-04-24T13:25:33.434Z,51.65
2018-04-24T13:28:05.885Z,51.74
2018-04-24T13:30:38.401Z,51.04
2018-04-24T13:33:10.980Z,51.03
2018-04-24T13:35:43.505Z,50.60
2018-04-24T13:38:16.017Z,51.14
2018-04-24T13:40:49.008Z,49.78
2018-04-24T13:43:21.512Z,49.67
2018-04-24T13:45:54.031Z,49.44
2018-04-24T13:48:26.531Z,48.54
2018-04-24T13:50:59.079Z,49.15
2018-04-24T13:53:31.683Z,49.64
2018-04-24T13:56:04.206Z,49.55
2018-04-24T13:58:36.747Z,49.74
2018-04-24T14:01:09.275Z,50.88
2018-04-24T14:03:41.818Z,50.78
2018-04-24T14:06:14.395Z,50.54
2018-04-24T14:08:46.904Z,51.42
2018-04-24T14:11:20.202Z,51.31
2018-04-24T14:13:52.772Z,51.19
2018-04-24T14:16:25.314Z,51.31
2018-04-24T14:18:57.815Z,50.99
2018-04-24T14:21:30.425Z,51.44
2018-04-24T14:24:02.945Z,51.33
2018-04-24T14:26:35.468Z,51.01
2018-04-24T14:29:07.993Z,51.75
2018-04-24T14:31:40.569Z,52.27
2018-04-24T14:34:13.066Z,51.36
2018-04-24T14:36:45.590Z,50.46
2018-04-24T14:39:18.244Z,50.73
2018-04-24T14:41:51.030Z,50.28
2018-04-24T14:44:23.531Z,49.60
2018-04-24T14:46:56.087Z,49.73
2018-04-24T14:49:28.663Z,49.17
2018-04-24T14:52:01.207Z,49.75
2018-04-24T14:54:33.730Z,49.44
2018-04-24T14:57:06.263Z,49.97
2018-04-24T14:59:38.805Z,48.41
2018-04-24T15:02:11.613Z,48.55
2018-04-24T15:04:44.115Z,48.19
2018-04-24T15:07:16.686Z,47.70
2018-04-24T15:09:49.163Z,47.37
2018-04-24T15:12:21.675Z,46.94
2018-04-24T15:14:54.223Z,47.10
2018-04-24T15:17:26.806Z,48.52
2018-04-24T15:19:59.390Z,48.50
2018-04-24T15:22:31.983Z,47.75
2018-04-24T15:25:04.507Z,48.31
2018-04-24T15:27:37.049Z,49.46
2018-04-24T15:30:09.639Z,48.84
2018-04-24T15:32:42.187Z,48.76
2018-04-24T15:35:14.805Z,48.42
2018-04-24T15:37:47.326Z,49.31
2018-04-24T15:40:20.637Z,49.54
2018-04-24T15:42:53.147Z,49.86
2018-04-24T15:45:25.668Z,50.25
2018-04-24T15:47:58.172Z,50.74
2018-04-24T15:50:30.735Z,51.25
2018-04-24T15:53:03.228Z,50.73
2018-04-24T15:55:35.799Z,51.03
2018-04-24T15:58:08.412Z,51.04
2018-04-24T16:00:40.954Z,50.29
2018-04-24T16:03:13.464Z,49.89
2018-04-24T16:05:46.051Z,51.11
2018-04-24T16:08:19.383Z,50.31
2018-04-24T16:10:52.080Z,50.02
2018-04-24T16:13:24.575Z,49.29
2018-04-24T16:15:57.092Z,49.76
2018-04-24T16:18:29.667Z,50.12
2018-04-24T16:21:02.280Z,49.04
2018-04-24T16:23:34.839Z,49.22
2018-04-24T16:26:07.464Z,49.53
2018-04-24T16:28:39.955Z,49.19
2018-04-24T16:31:12.473Z,49.83
2018-04-24T16:33:44.985Z,49.68
2018-04-24T16:36:17.508Z,50.03
2018-04-24T16:38:50.722Z,50.05
2018-04-24T16:41:23.288Z,49.62
2018-04-24T16:43:55.802Z,49.58
2018-04-24T16:46:28.393Z,50.23
2018-04-24T16:49:00.864Z,49.54
2018-04-24T16:51:33.384Z,50.03
2018-04-24T16:54:05.887Z,50.03
2018-04-24T16:56:38.402Z,50.04
2018-04-24T16:59:10.951Z,50.06
2018-04-24T17:01:43.708Z,50.20
2018-04-24T17:04:16.208Z,50.01
2018-04-24T17:06:49.373Z,50.11
2018-04-24T17:09:21.934Z,51.73
2018-04-24T17:11:54.456Z,51.19
2018-04-24T17:14:26.982Z,50.95
2018-04-24T17:16:59.772Z,51.32
2018-04-24T17:19:32.358Z,50.61
2018-04-24T17:22:04.964Z,51.17
2018-04-24T17:24:37.463Z,51.52
2018-04-24T17:27:09.981Z,51.40
2018-04-24T17:29:42.483Z,52.33
2018-04-24T17:32:14.995Z,52.10
2018-04-24T17:34:47.582Z,51.76
2018-04-24T17:37:20.863Z,51.51
2018-04-24T17:39:53.363Z,51.81
2018-04-24T17:42:25.938Z,51.89
2018-04-24T17:44:58.431Z,52.08
2018-04-24T17:47:30.947Z,51.72
2018-04-24T17:50:03.457Z,52.14
2018-04-24T17:52:36.095Z,51.87
2018-04-24T17:55:08.591Z,52.19
2018-04-24T17:57:41.111Z,52.30
2018-04-24T18:00:13.612Z,52.58
2018-04-24T18:02:46.234Z,52.67
2018-04-24T18:05:19.662Z,52.45
2018-04-24T18:07:52.230Z,52.83
2018-04-24T18:10:24.812Z,53.08
2018-04-24T18:12:57.340Z,52.75
2018-04-24T18:15:30.102Z,52.67
2018-04-24T18:18:02.651Z,52.84
2018-04-24T18:20:35.303Z,52.98
2018-04-24T18:23:08.169Z,53.31
2018-04-24T18:25:40.873Z,53.64
2018-04-24T18:28:13.949Z,53.40
2018-04-24T18:30:46.451Z,53.92
2018-04-24T18:33:19.015Z,54.34
2018-04-24T18:35:51.818Z,54.28
2018-04-24T18:38:24.742Z,54.82
2018-04-24T18:40:57.617Z,54.33
2018-04-24T18:43:30.631Z,54.02
2018-04-24T18:46:03.572Z,54.56
2018-04-24T18:48:36.623Z,54.19
2018-04-24T18:51:09.678Z,54.75
2018-04-24T18:53:42.703Z,54.52
2018-04-24T18:56:15.620Z,54.71
2018-04-24T18:58:48.553Z,55.69
2018-04-24T19:01:21.597Z,55.95
2018-04-24T19:03:54.291Z,55.59
2018-04-24T19:06:27.013Z,55.79
2018-04-24T19:08:59.818Z,56.24
2018-04-24T19:11:32.501Z,56.96
2018-04-24T19:14:10.512Z,56.80
2018-04-24T19:16:43.398Z,56.92
2018-04-24T19:19:21.503Z,56.78
2018-04-24T19:21:54.852Z,57.19
2018-04-24T19:24:32.932Z,57.67
2018-04-24T19:27:07.235Z,57.58
2018-04-24T19:29:40.217Z,57.64
2018-04-24T19:32:18.229Z,58.37
2018-04-24T19:34:55.247Z,58.09
2018-04-24T19:37:27.820Z,58.24
2018-04-24T19:40:05.912Z,58.04
2018-04-24T19:42:38.487Z,58.09
2018-04-24T19:45:11.251Z,58.10
2018-04-24T19:47:44.040Z,58.34
2018-04-24T19:50:19.541Z,58.45
2018-04-24T19:52:52.209Z,58.65
2018-04-24T19:55:26.533Z,58.74
2018-04-24T19:57:59.052Z,59.05
2018-04-24T20:00:31.584Z,59.06
2018-04-24T20:03:04.168Z,59.13
2018-04-24T20:05:37.020Z,59.27
2018-04-24T20:08:09.952Z,58.57
2018-04-24T20:10:42.462Z,58.68
2018-04-24T20:13:15.009Z,58.57
2018-04-24T20:15:47.508Z,58.71
2018-04-24T20:18:20.115Z,59.08
2018-04-24T20:20:52.599Z,59.49
2018-04-24T20:23:25.557Z,59.77
2018-04-24T20:25:58.079Z,59.23
2018-04-24T20:28:30.681Z,59.57
2018-04-24T20:31:03.190Z,59.58
2018-04-24T20:33:35.935Z,60.03
2018-04-24T20:36:08.443Z,59.55
2018-04-24T20:38:41.019Z,59.40
2018-04-24T20:41:13.534Z,59.65
2018-04-24T20:43:46.116Z,58.87
2018-04-24T20:46:18.616Z,59.54
2018-04-24T20:48:51.201Z,59.14
2018-04-24T20:51:23.704Z,59.18
2018-04-24T20:53:56.222Z,59.16
2018-04-24T20:56:28.783Z,59.42
2018-04-24T20:59:01.315Z,59.68
2018-04-24T21:01:33.815Z,59.91
2018-04-24T21:04:07.056Z,59.79
2018-04-24T21:06:39.599Z,60.25
2018-04-24T21:09:12.125Z,60.18
2018-04-24T21:11:44.628Z,60.32
2018-04-24T21:14:17.148Z,61.02
2018-04-24T21:16:49.671Z,60.55
2018-04-24T21:19:22.231Z,60.78
2018-04-24T21:21:55.209Z,60.95
2018-04-24T21:24:27.730Z,61.28
2018-04-24T21:27:00.278Z,61.07
2018-04-24T21:29:32.796Z,61.47
2018-04-24T21:32:05.297Z,61.57
2018-04-24T21:34:38.666Z,61.67
2018-04-24T21:37:11.243Z,61.52
2018-04-24T21:39:43.829Z,61.68
2018-04-24T21:42:16.411Z,61.68
2018-04-24T21:44:48.909Z,61.69
2018-04-24T21:47:21.435Z,61.34
2018-04-24T21:49:53.935Z,61.88
2018-04-24T21:52:27.063Z,62.07
2018-04-24T21:54:59.818Z,62.23
2018-04-24T21:57:32.346Z,62.78
2018-04-24T22:00:04.850Z,62.84
2018-04-24T22:02:37.423Z,62.80
2018-04-24T22:05:10.008Z,63.26
2018-04-24T22:07:42.533Z,63.76
2018-04-24T22:10:15.082Z,62.93
2018-04-24T22:12:47.612Z,63.19
2018-04-24T22:15:20.118Z,62.64
2018-04-24T22:17:52.703Z,62.37
2018-04-24T22:20:25.203Z,62.39
2018-04-24T22:22:57.728Z,62.13
2018-04-24T22:25:30.291Z,62.21
2018-04-24T22:28:03.840Z,62.18
2018-04-24T22:30:36.379Z,62.36
2018-04-24T22:33:08.984Z,62.94
2018-04-24T22:35:41.515Z,63.57
2018-04-24T22:38:14.171Z,63.05
2018-04-24T22:40:46.718Z,62.88
2018-04-24T22:43:19.330Z,63.15
2018-04-24T22:45:51.910Z,62.77
2018-04-24T22:48:24.427Z,62.92
2018-04-24T22:50:56.931Z,62.91
2018-04-24T22:53:29.448Z,62.78
2018-04-24T22:56:02.519Z,62.98
2018-04-24T22:58:35.036Z,62.84
2018-04-24T23:01:07.536Z,62.88
2018-04-24T23:03:40.091Z,62.61
2018-04-24T23:06:12.581Z,62.90
2018-04-24T23:08:45.119Z,63.19
2018-04-24T23:11:29.539Z,63.13
2018-04-24T23:14:13.968Z,62.89
2018-04-24T23:16:58.435Z,62.77
2018-04-24T23:19:42.745Z,62.77
2018-04-24T23:22:21.907Z,62.77
2018-04-24T23:24:54.419Z,63.18
2018-04-24T23:27:26.922Z,62.77
2018-04-24T23:29:59.527Z,62.98
2018-04-24T23:32:32.099Z,62.71
2018-04-24T23:35:04.624Z,62.65
2018-04-24T23:37:37.134Z,62.76
2018-04-24T23:40:09.747Z,62.61
2018-04-24T23:42:42.249Z,62.09
2018-04-24T23:45:14.968Z,62.06
2018-04-24T23:47:47.459Z,62.52
2018-04-24T23:50:19.983Z,62.27
2018-04-24T23:52:52.588Z,62.40
2018-04-24T23:55:25.100Z,62.46
2018-04-24T23:57:57.593Z,62.56
